aviador You're here:

KFLG Decoded Metar

FLAGSTAFF in AZ, USA
Report Time2018-02-25 22:57:00
UTC Time2018-02-25 23:39:42
Flight Rules vfr VFR
Wind200° at 08 kt
W.Decomp.*RWY 21: 7.3 kt HW 3.3 kt LCW
W.Rank200° ranks 6
Current wind is below 200° avg. (10.3)
Visibility9999 m
Phenomena:N/A
Clouds:N/A
Expected CloudBase > 6,400 ft AGL from Temp-Dew spread
CeilingNone
Temp03°C (ISA +2)
Dew Point-13°C (30% RH)
AAT-3.1°C
QNH1020 hPa
Density Alt7,031 ft
Elevation7,001 ft
Report Wrong Elevation
Raw Report
METAR KFLG 252257Z 20008KT 10SM CLR 03/M13 A3013 RMK AO2 SLP220 T00331133=

Extra information for KFLG:More info

Metar Taf Metar & Taf Last 4 Metars F.Rules Stats Wind Profile Meteogram Temp Stats Airport Information Weather charts Add Link Nearby VenuesMetar ALERT Operation Metar Decoded Social comments

AIRNAV info for KFLG